createdAt,value
2018-04-08T00:00:42.198Z,0
2018-04-08T00:01:41.697Z,0
2018-04-08T00:02:41.984Z,0
2018-04-08T00:03:41.999Z,0
2018-04-08T00:04:42.021Z,0
2018-04-08T00:05:42.051Z,0
2018-04-08T00:06:42.326Z,0
2018-04-08T00:07:41.838Z,0
2018-04-08T00:08:41.612Z,0
2018-04-08T00:09:42.408Z,0
2018-04-08T00:10:42.438Z,0
2018-04-08T00:11:42.165Z,0
2018-04-08T00:12:42.186Z,0
2018-04-08T00:13:42.461Z,0
2018-04-08T00:14:41.973Z,0
2018-04-08T00:15:42.048Z,0
2018-04-08T00:16:42.014Z,0
2018-04-08T00:17:42.284Z,0
2018-04-08T00:18:42.312Z,0
2018-04-08T00:19:42.085Z,0
2018-04-08T00:20:42.098Z,0
2018-04-08T00:21:42.392Z,0
2018-04-08T00:22:42.389Z,0
2018-04-08T00:23:42.156Z,0
2018-04-08T00:24:42.732Z,0
2018-04-08T00:25:42.457Z,0
2018-04-08T00:26:42.246Z,0
2018-04-08T00:27:42.504Z,0
2018-04-08T00:28:42.514Z,0
2018-04-08T00:29:42.701Z,0
2018-04-08T00:30:42.578Z,0
2018-04-08T00:31:42.074Z,0
2018-04-08T00:32:42.346Z,0
2018-04-08T00:33:42.369Z,0
2018-04-08T00:34:42.395Z,0
2018-04-08T00:35:42.418Z,0
2018-04-08T00:36:42.687Z,0
2018-04-08T00:37:42.448Z,0
2018-04-08T00:38:42.480Z,0
2018-04-08T00:39:42.496Z,0
2018-04-08T00:40:42.518Z,0
2018-04-08T00:41:42.538Z,0
2018-04-08T00:42:43.075Z,0
2018-04-08T00:43:43.090Z,0
2018-04-08T00:44:42.909Z,0
2018-04-08T00:45:42.618Z,0
2018-04-08T00:46:43.146Z,0
2018-04-08T00:47:42.917Z,0
2018-04-08T00:48:42.423Z,0
2018-04-08T00:49:42.718Z,0
2018-04-08T00:50:42.469Z,0
2018-04-08T00:51:42.489Z,0
2018-04-08T00:52:42.976Z,0
2018-04-08T00:53:43.050Z,0
2018-04-08T00:54:42.549Z,0
2018-04-08T00:55:43.340Z,0
2018-04-08T00:56:43.086Z,0
2018-04-08T00:57:42.853Z,0
2018-04-08T00:58:43.393Z,0
2018-04-08T00:59:42.942Z,0
2018-04-08T01:00:42.415Z,0
2018-04-08T01:01:43.204Z,0
2018-04-08T01:02:43.222Z,0
2018-04-08T01:03:43.500Z,0
2018-04-08T01:04:43.514Z,0
2018-04-08T01:05:43.286Z,0
2018-04-08T01:06:43.557Z,0
2018-04-08T01:07:42.808Z,0
2018-04-08T01:08:43.098Z,0
2018-04-08T01:09:43.344Z,0
2018-04-08T01:10:43.640Z,0
2018-04-08T01:11:42.904Z,0
2018-04-08T01:12:43.439Z,0
2018-04-08T01:13:43.449Z,0
2018-04-08T01:14:43.526Z,0
2018-04-08T01:15:43.500Z,0
2018-04-08T01:16:43.822Z,0
2018-04-08T01:17:43.278Z,0
2018-04-08T01:18:43.547Z,0
2018-04-08T01:19:43.314Z,0
2018-04-08T01:20:43.604Z,0
2018-04-08T01:21:43.607Z,0
2018-04-08T01:22:43.382Z,0
2018-04-08T01:23:43.909Z,0
2018-04-08T01:24:43.177Z,0
2018-04-08T01:25:43.961Z,0
2018-04-08T01:26:43.968Z,0
2018-04-08T01:27:43.984Z,0
2018-04-08T01:28:43.750Z,0
2018-04-08T01:29:43.819Z,0
2018-04-08T01:30:43.544Z,0
2018-04-08T01:31:43.820Z,0
2018-04-08T01:32:43.326Z,0
2018-04-08T01:33:43.850Z,0
2018-04-08T01:34:44.153Z,0
2018-04-08T01:35:43.660Z,0
2018-04-08T01:36:43.928Z,0
2018-04-08T01:37:44.189Z,0
2018-04-08T01:38:43.955Z,0
2018-04-08T01:39:43.468Z,0
2018-04-08T01:40:44.250Z,0
2018-04-08T01:41:44.024Z,0
2018-04-08T01:42:43.527Z,0
2018-04-08T01:43:44.313Z,0
2018-04-08T01:44:44.137Z,0
2018-04-08T01:45:44.348Z,0
2018-04-08T01:46:44.370Z,0
2018-04-08T01:47:44.138Z,0
2018-04-08T01:48:44.161Z,0
2018-04-08T01:49:43.920Z,0
2018-04-08T01:50:44.199Z,0
2018-04-08T01:51:44.235Z,0
2018-04-08T01:52:44.235Z,0
2018-04-08T01:53:44.252Z,0
2018-04-08T01:54:44.294Z,0
2018-04-08T01:55:44.288Z,0
2018-04-08T01:56:44.063Z,0
2018-04-08T01:57:44.098Z,0
2018-04-08T01:58:44.361Z,0
2018-04-08T01:59:44.170Z,0
2018-04-08T02:00:44.393Z,0
2018-04-08T02:01:44.177Z,0
2018-04-08T02:02:44.439Z,0
2018-04-08T02:03:44.456Z,0
2018-04-08T02:04:44.517Z,0
2018-04-08T02:05:44.730Z,0
2018-04-08T02:06:44.507Z,0
2018-04-08T02:07:44.016Z,0
2018-04-08T02:08:44.789Z,0
2018-04-08T02:09:44.322Z,0
2018-04-08T02:10:44.580Z,0
2018-04-08T02:11:44.602Z,0
2018-04-08T02:12:44.375Z,0
2018-04-08T02:13:44.637Z,0
2018-04-08T02:14:44.423Z,0
2018-04-08T02:15:44.677Z,0
2018-04-08T02:16:44.706Z,0
2018-04-08T02:17:44.753Z,0
2018-04-08T02:18:45.019Z,0
2018-04-08T02:19:44.826Z,0
2018-04-08T02:20:44.538Z,0
2018-04-08T02:21:44.813Z,0
2018-04-08T02:22:44.593Z,0
2018-04-08T02:23:45.104Z,0
2018-04-08T02:24:44.620Z,0
2018-04-08T02:25:45.148Z,0
2018-04-08T02:26:44.912Z,0
2018-04-08T02:27:44.935Z,0
2018-04-08T02:28:44.941Z,0
2018-04-08T02:29:44.964Z,0
2018-04-08T02:30:44.743Z,0
2018-04-08T02:31:44.754Z,0
2018-04-08T02:32:45.022Z,0
2018-04-08T02:33:44.549Z,0
2018-04-08T02:34:44.350Z,0
2018-04-08T02:35:45.091Z,0
2018-04-08T02:36:45.103Z,0
2018-04-08T02:37:45.125Z,0
2018-04-08T02:38:44.895Z,0
2018-04-08T02:39:45.571Z,0
2018-04-08T02:40:45.200Z,0
2018-04-08T02:41:44.957Z,0
2018-04-08T02:42:45.506Z,0
2018-04-08T02:43:45.527Z,0
2018-04-08T02:44:45.017Z,0
2018-04-08T02:45:45.548Z,0
2018-04-08T02:46:45.564Z,0
2018-04-08T02:47:45.329Z,0
2018-04-08T02:48:45.350Z,0
2018-04-08T02:49:45.383Z,0
2018-04-08T02:50:45.651Z,0
2018-04-08T02:51:45.413Z,0
2018-04-08T02:52:45.734Z,0
2018-04-08T02:53:45.712Z,0
2018-04-08T02:54:45.481Z,0
2018-04-08T02:55:45.760Z,0
2018-04-08T02:56:45.760Z,0
2018-04-08T02:57:45.269Z,0
2018-04-08T02:58:45.539Z,0
2018-04-08T02:59:45.322Z,0
2018-04-08T03:00:45.596Z,0
2018-04-08T03:01:45.867Z,0
2018-04-08T03:02:45.630Z,0
2018-04-08T03:03:45.901Z,0
2018-04-08T03:04:45.666Z,0
2018-04-08T03:05:45.630Z,0
2018-04-08T03:06:45.716Z,0
2018-04-08T03:07:45.770Z,0
2018-04-08T03:08:45.736Z,0
2018-04-08T03:09:45.301Z,0
2018-04-08T03:10:45.517Z,0
2018-04-08T03:11:46.060Z,0
2018-04-08T03:12:46.071Z,0
2018-04-08T03:13:45.833Z,0
2018-04-08T03:14:45.597Z,0
2018-04-08T03:15:45.618Z,0
2018-04-08T03:16:45.132Z,0
2018-04-08T03:17:46.182Z,0
2018-04-08T03:18:46.201Z,0
2018-04-08T03:19:46.214Z,0
2018-04-08T03:20:46.228Z,0
2018-04-08T03:21:45.988Z,0
2018-04-08T03:22:45.802Z,0
2018-04-08T03:23:46.029Z,0
2018-04-08T03:24:45.806Z,0
2018-04-08T03:25:45.811Z,0
2018-04-08T03:26:45.821Z,0
2018-04-08T03:27:45.939Z,0
2018-04-08T03:28:46.125Z,0
2018-04-08T03:29:45.889Z,0
2018-04-08T03:30:46.425Z,0
2018-04-08T03:31:46.447Z,0
2018-04-08T03:32:45.943Z,0
2018-04-08T03:33:46.212Z,0
2018-04-08T03:34:46.503Z,0
2018-04-08T03:35:45.747Z,0
2018-04-08T03:36:46.528Z,0
2018-04-08T03:37:46.381Z,0
2018-04-08T03:38:46.491Z,0
2018-04-08T03:39:46.339Z,0
2018-04-08T03:40:46.361Z,0
2018-04-08T03:41:46.373Z,0
2018-04-08T03:42:46.651Z,0
2018-04-08T03:43:46.168Z,0
2018-04-08T03:44:46.431Z,0
2018-04-08T03:45:46.459Z,0
2018-04-08T03:46:46.216Z,0
2018-04-08T03:47:46.764Z,0
2018-04-08T03:48:46.772Z,0
2018-04-08T03:49:46.797Z,0
2018-04-08T03:50:46.297Z,0
2018-04-08T03:51:46.570Z,0
2018-04-08T03:52:46.383Z,0
2018-04-08T03:53:46.611Z,0
2018-04-08T03:54:46.382Z,0
2018-04-08T03:55:46.641Z,0
2018-04-08T03:56:46.666Z,0
2018-04-08T03:57:46.425Z,0
2018-04-08T03:58:46.191Z,0
2018-04-08T03:59:46.968Z,0
2018-04-08T04:00:46.734Z,0
2018-04-08T04:01:46.501Z,0
2018-04-08T04:02:46.781Z,0
2018-04-08T04:03:46.289Z,0
2018-04-08T04:04:46.309Z,0
2018-04-08T04:05:46.338Z,0
2018-04-08T04:06:46.595Z,0
2018-04-08T04:07:46.662Z,0
2018-04-08T04:08:47.146Z,0
2018-04-08T04:09:46.662Z,0
2018-04-08T04:10:46.933Z,0
2018-04-08T04:11:46.690Z,0
2018-04-08T04:12:46.974Z,0
2018-04-08T04:13:46.982Z,0
2018-04-08T04:14:47.016Z,0
2018-04-08T04:15:47.030Z,0
2018-04-08T04:16:46.788Z,0
2018-04-08T04:17:47.071Z,0
2018-04-08T04:18:47.070Z,0
2018-04-08T04:19:47.085Z,0
2018-04-08T04:20:47.423Z,0
2018-04-08T04:21:46.611Z,0
2018-04-08T04:22:46.940Z,0
2018-04-08T04:23:47.183Z,0
2018-04-08T04:24:47.180Z,0
2018-04-08T04:25:46.953Z,0
2018-04-08T04:26:47.473Z,0
2018-04-08T04:27:47.243Z,0
2018-04-08T04:28:46.753Z,0
2018-04-08T04:29:47.524Z,0
2018-04-08T04:30:47.037Z,0
2018-04-08T04:31:47.040Z,0
2018-04-08T04:32:47.592Z,0
2018-04-08T04:33:47.404Z,0
2018-04-08T04:34:47.351Z,5
2018-04-08T04:35:47.127Z,5
2018-04-08T04:36:47.140Z,5
2018-04-08T04:37:47.256Z,5
2018-04-08T04:38:47.732Z,5
2018-04-08T04:39:47.201Z,5
2018-04-08T04:40:47.488Z,5
2018-04-08T04:41:47.739Z,10
2018-04-08T04:42:47.279Z,10
2018-04-08T04:43:47.546Z,10
2018-04-08T04:44:47.573Z,10
2018-04-08T04:45:47.844Z,10
2018-04-08T04:46:47.862Z,10
2018-04-08T04:47:47.375Z,15
2018-04-08T04:48:47.656Z,15
2018-04-08T04:49:47.918Z,15
2018-04-08T04:50:47.946Z,15
2018-04-08T04:51:47.464Z,20
2018-04-08T04:52:47.999Z,20
2018-04-08T04:53:48.061Z,20
2018-04-08T04:54:47.745Z,20
2018-04-08T04:55:47.506Z,25
2018-04-08T04:56:47.797Z,25
2018-04-08T04:57:48.077Z,25
2018-04-08T04:58:47.830Z,25
2018-04-08T04:59:48.100Z,30
2018-04-08T05:00:47.871Z,30
2018-04-08T05:01:48.143Z,30
2018-04-08T05:02:47.909Z,30
2018-04-08T05:03:48.078Z,35
2018-04-08T05:04:47.944Z,35
2018-04-08T05:05:47.965Z,35
2018-04-08T05:06:47.998Z,35
2018-04-08T05:07:48.288Z,40
2018-04-08T05:08:47.824Z,40
2018-04-08T05:09:47.780Z,40
2018-04-08T05:10:48.297Z,45
2018-04-08T05:11:48.321Z,45
2018-04-08T05:12:48.351Z,45
2018-04-08T05:13:47.862Z,45
2018-04-08T05:14:48.125Z,50
2018-04-08T05:15:48.147Z,50
2018-04-08T05:16:47.652Z,50
2018-04-08T05:17:48.194Z,55
2018-04-08T05:18:48.196Z,55
2018-04-08T05:19:47.965Z,55
2018-04-08T05:20:48.247Z,55
2018-04-08T05:21:48.259Z,60
2018-04-08T05:22:48.015Z,60
2018-04-08T05:23:48.086Z,60
2018-04-08T05:24:48.057Z,65
2018-04-08T05:25:48.329Z,65
2018-04-08T05:26:47.842Z,65
2018-04-08T05:27:48.623Z,70
2018-04-08T05:28:48.643Z,70
2018-04-08T05:29:48.164Z,70
2018-04-08T05:30:48.435Z,75
2018-04-08T05:31:47.954Z,75
2018-04-08T05:32:48.735Z,75
2018-04-08T05:33:48.823Z,75
2018-04-08T05:34:48.280Z,80
2018-04-08T05:35:48.285Z,80
2018-04-08T05:36:48.554Z,80
2018-04-08T05:37:48.318Z,85
2018-04-08T05:38:48.336Z,85
2018-04-08T05:39:48.608Z,85
2018-04-08T05:40:48.626Z,90
2018-04-08T05:41:48.399Z,90
2018-04-08T05:42:48.666Z,90
2018-04-08T05:43:48.468Z,95
2018-04-08T05:44:48.962Z,95
2018-04-08T05:45:48.981Z,95
2018-04-08T05:46:49.006Z,95
2018-04-08T05:47:48.503Z,100
2018-04-08T05:48:48.575Z,100
2018-04-08T05:49:48.540Z,100
2018-04-08T05:50:48.570Z,105
2018-04-08T05:51:48.836Z,105
2018-04-08T05:52:49.128Z,105
2018-04-08T05:53:48.873Z,110
2018-04-08T05:54:49.157Z,110
2018-04-08T05:55:48.663Z,110
2018-04-08T05:56:48.936Z,115
2018-04-08T05:57:48.958Z,115
2018-04-08T05:58:48.730Z,115
2018-04-08T05:59:48.733Z,115
2018-04-08T06:00:48.759Z,115
2018-04-08T06:01:49.030Z,115
2018-04-08T06:02:48.797Z,115
2018-04-08T06:03:49.190Z,120
2018-04-08T06:04:49.084Z,120
2018-04-08T06:05:48.599Z,120
2018-04-08T06:06:49.123Z,125
2018-04-08T06:07:49.417Z,125
2018-04-08T06:08:48.911Z,125
2018-04-08T06:09:48.926Z,125
2018-04-08T06:10:49.210Z,130
2018-04-08T06:11:49.217Z,130
2018-04-08T06:12:49.245Z,130
2018-04-08T06:13:49.515Z,130
2018-04-08T06:14:49.286Z,135
2018-04-08T06:15:49.299Z,135
2018-04-08T06:16:49.084Z,135
2018-04-08T06:17:49.078Z,135
2018-04-08T06:18:49.406Z,140
2018-04-08T06:19:49.113Z,140
2018-04-08T06:20:49.395Z,140
2018-04-08T06:21:49.151Z,140
2018-04-08T06:22:49.439Z,145
2018-04-08T06:23:49.192Z,145
2018-04-08T06:24:49.215Z,145
2018-04-08T06:25:49.253Z,145
2018-04-08T06:26:49.766Z,150
2018-04-08T06:27:49.269Z,150
2018-04-08T06:28:49.542Z,150
2018-04-08T06:29:49.566Z,150
2018-04-08T06:30:49.588Z,155
2018-04-08T06:31:49.368Z,155
2018-04-08T06:32:49.113Z,155
2018-04-08T06:33:48.928Z,160
2018-04-08T06:34:49.408Z,160
2018-04-08T06:35:49.425Z,165
2018-04-08T06:36:49.960Z,160
2018-04-08T06:37:49.993Z,165
2018-04-08T06:38:49.485Z,165
2018-04-08T06:39:50.022Z,165
2018-04-08T06:40:49.790Z,165
2018-04-08T06:41:49.844Z,170
2018-04-08T06:42:50.080Z,170
2018-04-08T06:43:49.633Z,170
2018-04-08T06:44:49.603Z,170
2018-04-08T06:45:49.872Z,175
2018-04-08T06:46:49.908Z,175
2018-04-08T06:47:49.928Z,175
2018-04-08T06:48:49.841Z,175
2018-04-08T06:49:49.963Z,180
2018-04-08T06:50:49.724Z,180
2018-04-08T06:51:50.253Z,180
2018-04-08T06:52:50.019Z,180
2018-04-08T06:53:50.039Z,185
2018-04-08T06:54:50.058Z,185
2018-04-08T06:55:49.817Z,185
2018-04-08T06:56:49.850Z,185
2018-04-08T06:57:49.880Z,185
2018-04-08T06:58:50.183Z,190
2018-04-08T06:59:50.414Z,190
2018-04-08T07:00:50.425Z,190
2018-04-08T07:01:50.187Z,190
2018-04-08T07:02:50.211Z,195
2018-04-08T07:03:50.275Z,195
2018-04-08T07:04:50.251Z,195
2018-04-08T07:05:50.271Z,195
2018-04-08T07:06:50.342Z,200
2018-04-08T07:07:50.568Z,200
2018-04-08T07:08:50.405Z,200
2018-04-08T07:09:50.357Z,200
2018-04-08T07:10:50.124Z,200
2018-04-08T07:11:50.397Z,200
2018-04-08T07:12:50.415Z,200
2018-04-08T07:13:50.434Z,200
2018-04-08T07:14:50.470Z,200
2018-04-08T07:15:50.475Z,200
2018-04-08T07:16:50.751Z,205
2018-04-08T07:17:50.278Z,205
2018-04-08T07:18:50.033Z,205
2018-04-08T07:19:50.613Z,205
2018-04-08T07:20:50.324Z,205
2018-04-08T07:21:50.595Z,210
2018-04-08T07:22:50.868Z,210
2018-04-08T07:23:50.892Z,210
2018-04-08T07:24:50.790Z,210
2018-04-08T07:25:50.686Z,210
2018-04-08T07:26:50.448Z,210
2018-04-08T07:27:50.719Z,215
2018-04-08T07:28:50.492Z,215
2018-04-08T07:29:51.011Z,220
2018-04-08T07:30:50.521Z,215
2018-04-08T07:31:50.798Z,215
2018-04-08T07:32:51.404Z,215
2018-04-08T07:33:50.839Z,220
2018-04-08T07:34:51.176Z,220
2018-04-08T07:35:50.633Z,220
2018-04-08T07:36:50.902Z,220
2018-04-08T07:37:50.934Z,220
2018-04-08T07:38:50.929Z,225
2018-04-08T07:39:51.059Z,225
2018-04-08T07:40:50.720Z,225
2018-04-08T07:41:50.999Z,225
2018-04-08T07:42:50.760Z,225
2018-04-08T07:43:51.291Z,225
2018-04-08T07:44:51.307Z,225
2018-04-08T07:45:50.829Z,230
2018-04-08T07:46:51.113Z,230
2018-04-08T07:47:50.869Z,230
2018-04-08T07:48:50.644Z,230
2018-04-08T07:49:51.076Z,230
2018-04-08T07:50:50.946Z,230
2018-04-08T07:51:50.991Z,230
2018-04-08T07:52:50.976Z,235
2018-04-08T07:53:51.252Z,235
2018-04-08T07:54:51.523Z,235
2018-04-08T07:55:51.572Z,235
2018-04-08T07:56:51.067Z,240
2018-04-08T07:57:51.609Z,240
2018-04-08T07:58:51.379Z,240
2018-04-08T07:59:51.386Z,240
2018-04-08T08:00:51.665Z,240
2018-04-08T08:01:51.180Z,240
2018-04-08T08:02:51.458Z,240
2018-04-08T08:03:51.196Z,245
2018-04-08T08:04:51.529Z,245
2018-04-08T08:05:51.493Z,245
2018-04-08T08:06:51.769Z,245
2018-04-08T08:07:51.285Z,245
2018-04-08T08:08:51.558Z,250
2018-04-08T08:09:51.829Z,250
2018-04-08T08:10:51.912Z,250
2018-04-08T08:11:51.122Z,250
2018-04-08T08:12:51.647Z,255
2018-04-08T08:13:51.162Z,255
2018-04-08T08:14:51.755Z,255
2018-04-08T08:15:51.224Z,255
2018-04-08T08:16:52.026Z,260
2018-04-08T08:17:51.525Z,260
2018-04-08T08:18:51.826Z,260
2018-04-08T08:19:51.577Z,260
2018-04-08T08:20:52.094Z,260
2018-04-08T08:21:51.915Z,265
2018-04-08T08:22:51.643Z,265
2018-04-08T08:23:51.768Z,265
2018-04-08T08:24:51.433Z,275
2018-04-08T08:25:52.212Z,270
2018-04-08T08:26:51.468Z,270
2018-04-08T08:27:51.751Z,270
2018-04-08T08:28:52.031Z,270
2018-04-08T08:29:52.299Z,270
2018-04-08T08:30:52.077Z,270
2018-04-08T08:31:52.184Z,270
2018-04-08T08:32:52.124Z,275
2018-04-08T08:33:52.146Z,280
2018-04-08T08:34:52.165Z,275
2018-04-08T08:35:52.443Z,280
2018-04-08T08:36:52.000Z,280
2018-04-08T08:37:52.009Z,280
2018-04-08T08:38:51.744Z,280
2018-04-08T08:39:52.276Z,285
2018-04-08T08:40:52.050Z,285
2018-04-08T08:41:52.372Z,285
2018-04-08T08:42:52.348Z,285
2018-04-08T08:43:52.429Z,290
2018-04-08T08:44:51.628Z,295
2018-04-08T08:45:51.900Z,295
2018-04-08T08:46:52.175Z,290
2018-04-08T08:47:52.734Z,300
2018-04-08T08:48:52.228Z,295
2018-04-08T08:49:52.500Z,295
2018-04-08T08:50:52.529Z,295
2018-04-08T08:51:52.597Z,300
2018-04-08T08:52:52.323Z,300
2018-04-08T08:53:52.084Z,300
2018-04-08T08:54:52.768Z,300
2018-04-08T08:55:52.386Z,300
2018-04-08T08:56:52.681Z,305
2018-04-08T08:57:52.958Z,310
2018-04-08T08:58:51.950Z,305
2018-04-08T08:59:52.731Z,305
2018-04-08T09:00:52.520Z,310
2018-04-08T09:01:52.528Z,310
2018-04-08T09:02:52.301Z,310
2018-04-08T09:03:52.836Z,310
2018-04-08T09:04:52.608Z,310
2018-04-08T09:05:52.883Z,315
2018-04-08T09:06:53.234Z,315
2018-04-08T09:07:52.655Z,315
2018-04-08T09:08:52.693Z,320
2018-04-08T09:09:52.466Z,320
2018-04-08T09:10:53.274Z,320
2018-04-08T09:11:52.761Z,320
2018-04-08T09:12:53.045Z,325
2018-04-08T09:13:53.070Z,325
2018-04-08T09:14:52.590Z,400
2018-04-08T09:15:52.606Z,560
2018-04-08T09:16:52.892Z,605
2018-04-08T09:17:53.164Z,610
2018-04-08T09:18:53.431Z,605
2018-04-08T09:19:53.448Z,610
2018-04-08T09:20:53.242Z,610
2018-04-08T09:21:53.405Z,605
2018-04-08T09:22:53.021Z,605
2018-04-08T09:23:53.057Z,610
2018-04-08T09:24:53.332Z,610
2018-04-08T09:25:53.359Z,610
2018-04-08T09:26:52.972Z,605
2018-04-08T09:27:53.160Z,605
2018-04-08T09:28:53.436Z,605
2018-04-08T09:29:53.724Z,610
2018-04-08T09:30:53.498Z,600
2018-04-08T09:31:53.797Z,600
2018-04-08T09:32:53.819Z,600
2018-04-08T09:33:53.834Z,590
2018-04-08T09:34:53.604Z,595
2018-04-08T09:35:53.379Z,590
2018-04-08T09:36:53.723Z,585
2018-04-08T09:37:53.945Z,580
2018-04-08T09:38:53.212Z,575
2018-04-08T09:39:53.746Z,575
2018-04-08T09:40:53.267Z,570
2018-04-08T09:41:54.060Z,565
2018-04-08T09:42:53.578Z,565
2018-04-08T09:43:54.093Z,560
2018-04-08T09:44:54.113Z,560
2018-04-08T09:45:53.900Z,555
2018-04-08T09:46:53.668Z,555
2018-04-08T09:47:53.692Z,550
2018-04-08T09:48:53.979Z,555
2018-04-08T09:49:53.508Z,545
2018-04-08T09:50:54.028Z,540
2018-04-08T09:51:54.118Z,540
2018-04-08T09:52:54.104Z,545
2018-04-08T09:53:54.123Z,540
2018-04-08T09:54:53.897Z,545
2018-04-08T09:55:54.191Z,545
2018-04-08T09:56:54.515Z,550
2018-04-08T09:57:54.535Z,540
2018-04-08T09:58:54.050Z,540
2018-04-08T09:59:54.332Z,540
2018-04-08T10:00:54.367Z,545
2018-04-08T10:01:54.136Z,545
2018-04-08T10:02:54.428Z,540
2018-04-08T10:03:54.709Z,545
2018-04-08T10:04:54.489Z,555
2018-04-08T10:05:54.264Z,555
2018-04-08T10:06:54.859Z,550
2018-04-08T10:07:54.322Z,550
2018-04-08T10:08:54.368Z,550
2018-04-08T10:09:54.633Z,550
2018-04-08T10:10:54.416Z,550
2018-04-08T10:11:54.444Z,555
2018-04-08T10:12:54.481Z,550
2018-04-08T10:13:54.762Z,550
2018-04-08T10:14:54.542Z,550
2018-04-08T10:15:54.823Z,560
2018-04-08T10:16:54.855Z,555
2018-04-08T10:17:55.134Z,555
2018-04-08T10:18:55.217Z,555
2018-04-08T10:19:54.951Z,555
2018-04-08T10:20:54.983Z,555
2018-04-08T10:21:55.074Z,560
2018-04-08T10:22:54.535Z,560
2018-04-08T10:23:54.817Z,560
2018-04-08T10:24:55.519Z,560
2018-04-08T10:25:54.651Z,560
2018-04-08T10:26:55.426Z,565
2018-04-08T10:27:55.476Z,565
2018-04-08T10:28:54.747Z,575
2018-04-08T10:29:55.276Z,585
2018-04-08T10:30:55.355Z,585
2018-04-08T10:31:55.309Z,585
2018-04-08T10:32:54.837Z,575
2018-04-08T10:33:55.379Z,570
2018-04-08T10:34:55.407Z,575
2018-04-08T10:35:55.694Z,580
2018-04-08T10:36:55.216Z,585
2018-04-08T10:37:55.502Z,595
2018-04-08T10:38:55.529Z,600
2018-04-08T10:39:55.581Z,600
2018-04-08T10:40:55.391Z,600
2018-04-08T10:41:55.663Z,605
2018-04-08T10:42:55.435Z,600
2018-04-08T10:43:55.976Z,610
2018-04-08T10:44:56.064Z,620
2018-04-08T10:45:55.531Z,620
2018-04-08T10:46:56.070Z,620
2018-04-08T10:47:55.850Z,605
2018-04-08T10:48:55.890Z,600
2018-04-08T10:49:55.923Z,605
2018-04-08T10:50:55.769Z,610
2018-04-08T10:51:56.448Z,615
2018-04-08T10:52:55.514Z,630
2018-04-08T10:53:55.800Z,650
2018-04-08T10:54:55.833Z,650
2018-04-08T10:55:56.409Z,645
2018-04-08T10:56:56.146Z,665
2018-04-08T10:57:55.656Z,675
2018-04-08T10:58:56.197Z,690
2018-04-08T10:59:56.225Z,685
2018-04-08T11:00:56.552Z,690
2018-04-08T11:01:56.320Z,715
2018-04-08T11:02:56.108Z,685
2018-04-08T11:03:56.396Z,670
2018-04-08T11:04:57.129Z,695
2018-04-08T11:05:56.461Z,760
2018-04-08T11:06:56.494Z,775
2018-04-08T11:07:56.551Z,730
2018-04-08T11:08:56.281Z,725
2018-04-08T11:09:56.575Z,760
2018-04-08T11:10:56.475Z,760
2018-04-08T11:11:56.931Z,710
2018-04-08T11:12:56.718Z,725
2018-04-08T11:13:56.758Z,830
2018-04-08T11:14:56.523Z,905
2018-04-08T11:15:56.823Z,865
2018-04-08T11:16:57.162Z,865
2018-04-08T11:17:56.877Z,890
2018-04-08T11:18:56.659Z,860
2018-04-08T11:19:57.213Z,810
2018-04-08T11:20:56.713Z,765
2018-04-08T11:21:56.748Z,760
2018-04-08T11:22:57.051Z,800
2018-04-08T11:23:56.825Z,830
2018-04-08T11:24:57.132Z,840
2018-04-08T11:25:56.937Z,855
2018-04-08T11:26:57.434Z,860
2018-04-08T11:27:56.974Z,835
2018-04-08T11:28:57.021Z,820
2018-04-08T11:29:57.034Z,835
2018-04-08T11:30:57.581Z,850
2018-04-08T11:31:57.648Z,910
2018-04-08T11:32:57.139Z,1000
2018-04-08T11:33:57.502Z,940
2018-04-08T11:34:57.240Z,855
2018-04-08T11:35:57.515Z,840
2018-04-08T11:36:57.553Z,830
2018-04-08T11:37:57.346Z,875
2018-04-08T11:38:57.644Z,960
2018-04-08T11:39:57.926Z,955
2018-04-08T11:40:57.767Z,1000
2018-04-08T11:41:57.745Z,1090
2018-04-08T11:42:58.030Z,1110
2018-04-08T11:43:58.059Z,1140
2018-04-08T11:44:57.848Z,1200
2018-04-08T11:45:57.890Z,1250
2018-04-08T11:46:57.675Z,1275
2018-04-08T11:47:58.217Z,1305
2018-04-08T11:48:57.750Z,1280
2018-04-08T11:49:57.914Z,1255
2018-04-08T11:50:58.361Z,1255
2018-04-08T11:51:57.861Z,1230
2018-04-08T11:52:57.899Z,1260
2018-04-08T11:53:58.194Z,1290
2018-04-08T11:54:57.970Z,1305
2018-04-08T11:55:58.313Z,1380
2018-04-08T11:56:58.041Z,1480
2018-04-08T11:57:58.090Z,1495
2018-04-08T11:58:58.627Z,1505
2018-04-08T11:59:58.406Z,1510
2018-04-08T12:00:58.690Z,1455
2018-04-08T12:01:58.488Z,1475
2018-04-08T12:02:57.761Z,1655
2018-04-08T12:03:58.297Z,1795
2018-04-08T12:04:58.334Z,1830
2018-04-08T12:05:58.626Z,1740
2018-04-08T12:06:58.196Z,1860
2018-04-08T12:07:58.708Z,1865
2018-04-08T12:08:58.727Z,1860
2018-04-08T12:09:58.770Z,1875
2018-04-08T12:10:58.350Z,1895
2018-04-08T12:11:59.124Z,2020
2018-04-08T12:12:58.372Z,1905
2018-04-08T12:13:58.937Z,1855
2018-04-08T12:14:59.024Z,1885
2018-04-08T12:15:59.002Z,1995
2018-04-08T12:16:58.545Z,2065
2018-04-08T12:17:59.070Z,2065
2018-04-08T12:18:59.107Z,1880
2018-04-08T12:19:59.376Z,2015
2018-04-08T12:20:59.262Z,2180
2018-04-08T12:21:58.438Z,2085
2018-04-08T12:22:58.977Z,2140
2018-04-08T12:23:59.041Z,2035
2018-04-08T12:24:59.059Z,2140
2018-04-08T12:25:59.401Z,2205
2018-04-08T12:26:59.378Z,2055
2018-04-08T12:27:59.420Z,2070
2018-04-08T12:28:58.973Z,2080
2018-04-08T12:29:59.523Z,2070
2018-04-08T12:30:59.363Z,2125
2018-04-08T12:31:59.341Z,2205
2018-04-08T12:32:59.640Z,2310
2018-04-08T12:33:59.674Z,2240
2018-04-08T12:34:59.469Z,2370
2018-04-08T12:35:59.497Z,2490
2018-04-08T12:36:59.283Z,2350
2018-04-08T12:37:59.576Z,2295
2018-04-08T12:38:59.870Z,2365
2018-04-08T12:39:59.911Z,2285
2018-04-08T12:40:59.431Z,2245
2018-04-08T12:41:59.973Z,2325
2018-04-08T12:42:59.766Z,2350
2018-04-08T12:43:59.541Z,2240
2018-04-08T12:44:59.842Z,2185
2018-04-08T12:46:00.187Z,2270
2018-04-08T12:46:59.661Z,2090
2018-04-08T12:48:00.208Z,2075
2018-04-08T12:49:00.509Z,2345
2018-04-08T12:50:00.296Z,2390
2018-04-08T12:51:00.318Z,2440
2018-04-08T12:52:00.541Z,2425
2018-04-08T12:53:00.386Z,2420
2018-04-08T12:54:00.238Z,2390
2018-04-08T12:55:00.465Z,2550
2018-04-08T12:56:00.309Z,2665
2018-04-08T12:57:00.812Z,2470
2018-04-08T12:58:00.598Z,2505
2018-04-08T12:59:00.632Z,2455
2018-04-08T13:00:00.673Z,2455
2018-04-08T13:01:01.039Z,2450
2018-04-08T13:02:00.753Z,2515
2018-04-08T13:03:00.794Z,2555
2018-04-08T13:04:00.843Z,2635
2018-04-08T13:05:01.124Z,2495
2018-04-08T13:06:01.151Z,2470
2018-04-08T13:07:00.945Z,2535
2018-04-08T13:08:01.003Z,2430
2018-04-08T13:09:01.030Z,2470
2018-04-08T13:10:00.814Z,2440
2018-04-08T13:11:00.842Z,2525
2018-04-08T13:12:01.142Z,2605
2018-04-08T13:13:01.179Z,2615
2018-04-08T13:14:00.707Z,2555
2018-04-08T13:15:00.999Z,2530
2018-04-08T13:16:01.603Z,2570
2018-04-08T13:17:01.341Z,2660
2018-04-08T13:18:01.423Z,2625
2018-04-08T13:19:01.679Z,2615
2018-04-08T13:20:01.210Z,2665
2018-04-08T13:21:01.248Z,2580
2018-04-08T13:22:01.853Z,2530
2018-04-08T13:23:01.080Z,2705
2018-04-08T13:24:01.629Z,2600
2018-04-08T13:25:01.656Z,2495
2018-04-08T13:26:01.187Z,2500
2018-04-08T13:27:01.737Z,2625
2018-04-08T13:28:01.791Z,2500
2018-04-08T13:29:01.819Z,2525
2018-04-08T13:30:02.116Z,2440
2018-04-08T13:31:01.968Z,2495
2018-04-08T13:32:01.693Z,2665
2018-04-08T13:33:01.974Z,2705
2018-04-08T13:34:02.023Z,2635
2018-04-08T13:35:02.069Z,2205
2018-04-08T13:36:02.442Z,2160
2018-04-08T13:37:01.877Z,2415
2018-04-08T13:38:02.431Z,2700
2018-04-08T13:39:02.470Z,2745
2018-04-08T13:40:02.250Z,2725
2018-04-08T13:41:02.285Z,2645
2018-04-08T13:42:02.079Z,2530
2018-04-08T13:43:02.122Z,2485
2018-04-08T13:44:02.665Z,2485
2018-04-08T13:45:02.196Z,2580
2018-04-08T13:46:02.032Z,2675
2018-04-08T13:47:02.530Z,2545
2018-04-08T13:48:02.316Z,2670
2018-04-08T13:49:02.332Z,2655
2018-04-08T13:50:02.875Z,2620
2018-04-08T13:51:02.157Z,2740
2018-04-08T13:52:02.704Z,2765
2018-04-08T13:53:02.999Z,2785
2018-04-08T13:54:02.547Z,2825
2018-04-08T13:55:02.571Z,2750
2018-04-08T13:56:02.646Z,2650
2018-04-08T13:57:03.181Z,2600
2018-04-08T13:58:02.456Z,2595
2018-04-08T13:59:03.034Z,2630
2018-04-08T14:00:02.806Z,2500
2018-04-08T14:01:02.645Z,2265
2018-04-08T14:02:03.375Z,2180
2018-04-08T14:03:02.940Z,2215